Flight Track Log - Related Links

Times and Time Zones

All times are in EDT time to prevent confusion due to time zone crossing. See the SWA1524 flight status page for this flight to view local times or setup timezone preferences in your user account.


Time Position Orientation Groundspeed Altitude Reporting Facility
EDT Latitude Longitude Course Direction KTS MPH feet Rate Location/Type
Mon 06:37:38 PM 30.1942 -97.8783 286° West 278 320 8,800  Level Houston Center
Mon 06:38:40 PM 30.2169 -97.9789 285° West 299 344 11,000 2,081 Climbing Houston Center
Mon 06:39:42 PM 30.2408 -98.0908 284° West 353 406 13,100 2,634 Climbing Houston Center
Mon 06:40:00 PM 30.4113 -97.8571 276° West  Level FlightAware Approximate
Mon 06:40:43 PM 30.2661 -98.2089 284° West 375 432 16,400  Level Houston Center
Mon 06:41:00 PM 30.4167 -97.9781 270° West  Level FlightAware Approximate
Mon 06:41:45 PM 30.2922 -98.3322 284° West 370 426 19,800  Level Houston Center
Mon 06:42:47 PM 30.3158 -98.4486 283° West 380 437 22,000 2,081 Climbing Houston Center
Mon 06:43:49 PM 30.3428 -98.5753 284° West 396 456 24,100 1,935 Climbing Houston Center
Mon 06:44:51 PM 30.3697 -98.7056 284° West 409 471 26,000 1,742 Climbing Houston Center
Mon 06:45:53 PM 30.3975 -98.8383 284° West 420 483 27,700 1,839 Climbing Houston Center
Mon 06:46:55 PM 30.4261 -98.9750 284° West 429 494 29,800 2,323 Climbing Houston Center
Mon 06:47:57 PM 30.4581 -99.1261 284° West 410 472 32,500 1,935 Climbing Houston Center
Mon 06:48:59 PM 30.4797 -99.2306 284° West 400 460 33,800 1,452 Climbing Houston Center
Mon 06:50:01 PM 30.5106 -99.3806 283° West 399 459 35,500 1,403 Climbing Houston Center
Mon 06:51:03 PM 30.5358 -99.5058 283° West 401 461 36,700 1,113 Climbing Houston Center
Mon 06:52:05 PM 30.5603 -99.6297 283° West 397 457 37,800 629 Climbing Houston Center
Mon 06:53:07 PM 30.5853 -99.7519 283° West 391 450 38,000 96 Climbing Houston Center
Mon 06:54:10 PM 30.6053 -99.8761 281° West 397 457 38,000  Level Houston Center
Mon 06:55:12 PM 30.6233 -100.0269 278° West 394 453 38,000  Level Houston Center
Mon 06:56:14 PM 30.6392 -100.1528 278° West 396 456 38,000  Level Houston Center
Mon 06:57:16 PM 30.6553 -100.2783 279° West 395 455 38,000  Level Houston Center
Mon 06:58:18 PM 30.6708 -100.4067 278° West 402 463 38,000  Level Houston Center
Mon 06:59:20 PM 30.6850 -100.5308 278° West 395 455 38,000  Level Houston Center
Mon 07:00:22 PM 30.7033 -100.6781 278° West 388 447 38,000  Level Houston Center
Mon 07:01:24 PM 30.7169 -100.8003 277° West 384 442 38,000  Level Houston Center
Mon 07:02:26 PM 30.7317 -100.9222 278° West 384 442 38,000  Level Houston Center
Mon 07:03:28 PM 30.7439 -101.0450 277° West 384 442 38,000  Level Houston Center
Mon 07:04:30 PM 30.7597 -101.1681 279° West 386 444 38,000  Level Houston Center
Mon 07:05:33 PM 30.7772 -101.3147 278° West 385 443 38,000 -48 Level Houston Center
Mon 07:06:35 PM 30.7903 -101.4414 277° West 393 452 37,900  Descending Houston Center
Mon 07:07:37 PM 30.8017 -101.5650 276° West 390 449 38,000 48 Climbing Houston Center
Mon 07:08:39 PM 30.8161 -101.6911 278° West 386 444 38,000  Level Houston Center
Mon 07:09:41 PM 30.8297 -101.8156 277° West 390 449 38,000  Level Houston Center
Mon 07:10:43 PM 30.8428 -101.9386 277° West 386 444 38,000  Level Houston Center
Mon 07:11:45 PM 30.8567 -102.0619 278° West 384 442 38,000  Level Houston Center
Mon 07:12:47 PM 30.8722 -102.2114 277° West 385 443 38,000  Level Houston Center
Mon 07:13:49 PM 30.8858 -102.3386 277° West 392 451 38,000  Level Houston Center
Mon 07:14:45 PM 30.8961 -102.4383 277° West 393 452 38,000  Level Albuquerque Center
Mon 07:15:46 PM 30.9092 -102.5650 277° West 392 451 38,000  Level Albuquerque Center
Mon 07:16:48 PM 30.9219 -102.6903 277° West 390 449 38,000  Level Albuquerque Center
Mon 07:17:49 PM 30.9372 -102.8403 277° West 389 448 38,000  Level Albuquerque Center
Mon 07:18:50 PM 30.9500 -102.9664 277° West 390 449 38,000  Level Albuquerque Center
Mon 07:19:52 PM 30.9811 -103.0867 287° West 385 443 38,000  Level Albuquerque Center
Mon 07:20:53 PM 31.0150 -103.2078 288° West 392 451 38,000  Level Albuquerque Center
Mon 07:21:54 PM 31.0500 -103.3292 289° West 393 452 38,000  Level Albuquerque Center
Mon 07:22:56 PM 31.0817 -103.4483 287° West 388 447 38,000  Level Albuquerque Center
Mon 07:23:57 PM 31.1131 -103.5664 287° West 383 441 38,000  Level Albuquerque Center
Mon 07:24:58 PM 31.1431 -103.6819 287° West 376 433 38,000  Level Albuquerque Center
Mon 07:26:00 PM 31.1767 -103.8044 288° West 376 433 38,000  Level Albuquerque Center
Mon 07:27:01 PM 31.2086 -103.9231 288° West 381 438 38,000  Level Albuquerque Center
Mon 07:28:02 PM 31.2411 -104.0419 288° West 384 442 38,000  Level Albuquerque Center
Mon 07:29:04 PM 31.2728 -104.1592 288° West 381 438 38,000  Level Albuquerque Center
Mon 07:30:05 PM 31.3094 -104.3025 287° West 384 442 38,000  Level Albuquerque Center
Mon 07:31:06 PM 31.3417 -104.4233 287° West 389 448 38,000  Level Albuquerque Center
Mon 07:32:07 PM 31.3744 -104.5428 288° West 389 448 38,000  Level Albuquerque Center
Mon 07:33:09 PM 31.4047 -104.6631 286° West 388 447 38,000  Level Albuquerque Center
Mon 07:34:10 PM 31.4369 -104.7844 287° West 391 450 38,000 -49 Level Albuquerque Center
Mon 07:35:11 PM 31.4686 -104.9064 287° West 393 452 37,900  Descending Albuquerque Center
Mon 07:36:12 PM 31.5000 -105.0289 287° West 395 455 38,000 49 Climbing Albuquerque Center
Mon 07:37:14 PM 31.5311 -105.1506 287° West 394 453 38,000  Level Albuquerque Center
Mon 07:38:15 PM 31.5689 -105.2958 287° West 393 452 38,000  Level Albuquerque Center
Mon 07:39:16 PM 31.5989 -105.4172 286° West 391 450 38,000  Level Albuquerque Center
Mon 07:40:18 PM 31.6297 -105.5392 287° West 392 451 38,000  Level Albuquerque Center
Mon 07:41:19 PM 31.6603 -105.6586 287° West 387 445 38,000  Level Albuquerque Center
Mon 07:42:20 PM 31.6908 -105.7803 286° West 388 447 38,000  Level Albuquerque Center
Mon 07:43:21 PM 31.7211 -105.9014 286° West 387 445 38,000  Level Albuquerque Center
Mon 07:44:23 PM 31.7514 -106.0225 286° West 388 447 38,000  Level Albuquerque Center
Mon 07:45:24 PM 31.7817 -106.1425 287° West 386 444 38,000  Level Albuquerque Center
Mon 07:46:25 PM 31.8192 -106.2886 287° West 389 448 38,000  Level Albuquerque Center
Mon 07:47:27 PM 31.8275 -106.4189 274° West 396 456 38,000  Level Albuquerque Center
Mon 07:48:28 PM 31.8375 -106.5447 275° West 392 451 38,000  Level Albuquerque Center
Mon 07:49:29 PM 31.8467 -106.6817 275° West 391 450 38,000  Level Albuquerque Center
Mon 07:50:31 PM 31.8564 -106.8083 275° West 389 448 38,000  Level Albuquerque Center
Mon 07:51:32 PM 31.8661 -106.9356 275° West 389 448 38,000  Level Albuquerque Center
Mon 07:52:33 PM 31.8744 -107.0639 274° West 392 451 38,000  Level Albuquerque Center
Mon 07:53:35 PM 31.8861 -107.1897 276° West 388 447 38,000  Level Albuquerque Center
Mon 07:54:36 PM 31.9228 -107.3083 290° West 382 440 38,000  Level Albuquerque Center
Mon 07:55:37 PM 31.9592 -107.4314 289° West 392 451 38,000  Level Albuquerque Center
Mon 07:56:39 PM 31.9958 -107.5531 290° West 393 452 38,000  Level Albuquerque Center
Mon 07:57:40 PM 32.0322 -107.6742 290° West 392 451 38,000  Level Albuquerque Center
Mon 07:58:42 PM 32.0681 -107.7975 289° West 395 455 38,000  Level Albuquerque Center
Mon 07:59:43 PM 32.1044 -107.9206 289° West 396 456 38,000  Level Albuquerque Center
Mon 08:00:45 PM 32.1483 -108.0694 289° West 399 459 38,000  Level Albuquerque Center
Mon 08:01:46 PM 32.1853 -108.1939 289° West 400 460 38,000  Level Albuquerque Center
Mon 08:02:48 PM 32.2225 -108.3192 289° West 403 464 38,000  Level Albuquerque Center
Mon 08:03:49 PM 32.2611 -108.4503 289° West 402 463 38,000  Level Albuquerque Center
Mon 08:04:51 PM 32.2969 -108.5739 289° West 401 461 38,000  Level Albuquerque Center
Mon 08:05:52 PM 32.3325 -108.6981 289° West 401 461 38,000  Level Albuquerque Center
Mon 08:06:54 PM 32.3697 -108.8219 290° West 401 461 38,000  Level Albuquerque Center
Mon 08:07:56 PM 32.4047 -108.9464 288° West 400 460 38,000  Level Albuquerque Center
Mon 08:08:57 PM 32.4419 -109.0711 290° West 402 463 38,000  Level Albuquerque Center
Mon 08:09:59 PM 32.4842 -109.2203 289° West 401 461 38,000  Level Albuquerque Center
Mon 08:11:01 PM 32.5203 -109.3433 289° West 398 458 38,000  Level Albuquerque Center
Mon 08:12:02 PM 32.5544 -109.4656 288° West 395 455 38,000  Level Albuquerque Center
Mon 08:13:04 PM 32.5900 -109.5867 289° West 393 452 38,000  Level Albuquerque Center
Mon 08:14:05 PM 32.6239 -109.7075 288° West 390 449 38,000  Level Albuquerque Center
Mon 08:15:07 PM 32.6578 -109.8294 288° West 390 449 38,000  Level Albuquerque Center
Mon 08:16:09 PM 32.6997 -109.9783 289° West 394 453 38,000  Level Albuquerque Center
Mon 08:17:10 PM 32.7344 -110.1028 288° West 397 457 38,000  Level Albuquerque Center
Mon 08:18:12 PM 32.7719 -110.2261 290° West 398 458 38,000  Level Albuquerque Center
Mon 08:19:14 PM 32.8058 -110.3511 288° West 399 459 38,000  Level Albuquerque Center
Mon 08:20:15 PM 32.8406 -110.4769 288° West 401 461 38,000  Level Albuquerque Center
Mon 08:21:17 PM 32.8747 -110.6017 288° West 401 461 38,000  Level Albuquerque Center
Mon 08:22:18 PM 32.9106 -110.7328 288° West 402 463 38,000  Level Albuquerque Center
Mon 08:23:20 PM 32.9447 -110.8611 288° West 405 466 38,000  Level Albuquerque Center
Mon 08:24:21 PM 32.9792 -110.9886 288° West 406 467 38,000  Level Albuquerque Center
Mon 08:25:23 PM 33.0203 -111.1444 288° West 410 472 38,000  Level Albuquerque Center
Mon 08:26:25 PM 33.0539 -111.2742 287° West 411 473 38,000  Level Albuquerque Center
Mon 08:27:26 PM 33.0883 -111.4025 288° West 408 470 38,000  Level Albuquerque Center
Mon 08:28:28 PM 33.1214 -111.5319 287° West 406 467 38,000  Level Albuquerque Center
Mon 08:29:29 PM 33.1558 -111.6608 288° West 407 468 38,000  Level Albuquerque Center
Mon 08:30:31 PM 33.1894 -111.7906 287° West 409 471 38,000  Level Albuquerque Center
Mon 08:31:32 PM 33.2233 -111.9178 288° West 405 466 38,000  Level Albuquerque Center
Mon 08:32:34 PM 33.2558 -112.0444 287° West 400 460 38,000  Level Albuquerque Center
Mon 08:33:35 PM 33.2878 -112.1700 287° West 396 456 38,000  Level Albuquerque Center
Mon 08:34:37 PM 33.3194 -112.2961 287° West 395 455 38,000  Level Albuquerque Center
Mon 08:35:38 PM 33.3581 -112.4461 287° West 393 452 38,000  Level Albuquerque Center
Mon 08:36:40 PM 33.3894 -112.5703 287° West 390 449 38,000  Level Albuquerque Center
Mon 08:37:41 PM 33.4222 -112.7008 287° West 390 449 38,000  Level Albuquerque Center
Mon 08:38:43 PM 33.4533 -112.8231 287° West 388 447 38,000  Level Albuquerque Center
Mon 08:39:44 PM 33.4944 -112.9389 293° West 382 440 38,000  Level Albuquerque Center
Mon 08:40:46 PM 33.5372 -113.0569 294° West 386 444 38,000  Level Albuquerque Center
Mon 08:41:47 PM 33.5789 -113.1764 293° West 389 448 38,000  Level Albuquerque Center
Mon 08:42:49 PM 33.6219 -113.2944 294° West 388 447 38,000  Level Albuquerque Center
Mon 08:43:50 PM 33.6628 -113.4117 293° West 389 448 38,000  Level Albuquerque Center
Mon 08:44:52 PM 33.7133 -113.5567 293° West 391 450 38,000  Level Albuquerque Center
Mon 08:45:53 PM 33.7553 -113.6775 293° West 392 451 38,000  Level Albuquerque Center
Mon 08:46:54 PM 33.7972 -113.7983 293° West 392 451 38,000  Level Albuquerque Center
Mon 08:47:56 PM 33.8411 -113.9197 294° West 394 453 38,000  Level Albuquerque Center
Mon 08:48:58 PM 33.8808 -114.0414 291° West 393 452 38,000 -307 Level Albuquerque Center
Mon 08:50:13 PM 33.9219 -114.2100 286° West 402 463 37,300 -745 Descending Los Angeles Center
Mon 08:51:15 PM 33.9394 -114.3411 279° West 400 460 36,300 -629 Descending Los Angeles Center
Mon 08:52:17 PM 33.9553 -114.4731 278° West 400 460 36,000 -145 Descending Los Angeles Center
Mon 08:53:19 PM 33.9733 -114.6047 279° West 400 460 36,000 -435 Level Los Angeles Center
Mon 08:54:21 PM 33.9922 -114.7633 278° West 400 460 35,100 -919 Descending Los Angeles Center
Mon 08:55:23 PM 34.0086 -114.8939 279° West 397 457 34,100 -919 Descending Los Angeles Center
Mon 08:56:25 PM 34.0261 -115.0311 279° West 410 472 33,200 -871 Descending Los Angeles Center
Mon 08:57:27 PM 34.0422 -115.1711 278° West 420 483 32,300 -919 Descending Los Angeles Center
Mon 08:58:29 PM 34.0586 -115.3094 278° West 419 482 31,300 -927 Descending Los Angeles Center
Mon 08:59:30 PM 34.0758 -115.4486 279° West 421 484 30,400 -1,024 Descending Los Angeles Center
Mon 09:00:32 PM 34.0944 -115.6164 278° West 422 486 29,200 -1,065 Descending Los Angeles Center
Mon 09:01:34 PM 34.1106 -115.7550 278° West 422 486 28,200 -968 Descending Los Angeles Center
Mon 09:02:36 PM 34.0939 -115.8933 262° West 418 481 27,200 -968 Descending Los Angeles Center
Mon 09:03:38 PM 34.0733 -116.0306 260° West 420 483 26,200 -976 Descending Los Angeles Center
Mon 09:04:39 PM 34.0536 -116.1653 260° West 412 474 25,200 -976 Descending Los Angeles Center
Mon 09:05:41 PM 34.0328 -116.3008 260° West 413 475 24,200 -968 Descending Los Angeles Center
Mon 09:06:43 PM 34.0133 -116.4333 260° West 406 467 23,200 -1,065 Descending Los Angeles Center
Mon 09:07:45 PM 33.9961 -116.5919 263° West 400 460 22,000 -1,073 Descending Los Angeles Center
Mon 09:08:46 PM 33.9875 -116.7219 265° West 394 453 21,000 -976 Descending Los Angeles Center
Mon 09:09:48 PM 33.9767 -116.8492 264° West 387 445 20,000 -960 Descending Los Angeles Center
Mon 09:10:26 PM 33.9667 -116.9333 262° West 374 430 19,400 -1,714 Descending Southern California TRACON
Mon 09:11:26 PM 33.9667 -117.0667 270° West 367 422 17,200 -1,250 Descending Southern California TRACON
Mon 09:12:26 PM 33.9500 -117.1833 260° West 352 405 16,900 -800 Descending Southern California TRACON
Mon 09:13:26 PM 33.9333 -117.3000 260° West 344 396 15,600 -1,636 Descending Southern California TRACON
Mon 09:14:27 PM 33.9500 -117.4000 281° West 336 387 13,600 -2,033 Descending Southern California TRACON
Mon 09:15:27 PM 33.9833 -117.5167 289° West 323 372 11,500 -1,632 Descending Southern California TRACON
Mon 09:16:21 PM 34.0000 -117.5833 287° West 302 348 10,500 -887 Descending Southern California TRACON
Mon 09:17:22 PM 34.0000 -117.7000 270° West 290 334 9,800 -942 Descending Southern California TRACON
Mon 09:18:22 PM 34.0000 -117.7833 270° West 278 320 8,600 -1,250 Descending Southern California TRACON
Mon 09:19:22 PM 33.9833 -117.8833 259° West 276 318 7,300 -1,150 Descending Southern California TRACON
Mon 09:20:22 PM 33.9833 -117.9667 270° West 268 308 6,300 -950 Descending Southern California TRACON
Mon 09:21:22 PM 34.0000 -118.0500 284° West 249 287 5,400 -810 Descending Southern California TRACON
Mon 09:22:28 PM 33.9833 -118.1333 256° West 228 262 4,600 -833 Descending Southern California TRACON
Mon 09:23:10 PM 33.9775 -118.1717 260° West 229 264 3,900 -981 Descending Los Angeles Center
Mon 09:24:12 PM 33.9667 -118.2608 262° West 228 262 2,900 -1,210 Descending Los Angeles Center
Mon 09:25:14 PM 33.9606 -118.3314 264° West 222 255 1,400 -1,171 Descending Los Angeles Center
Mon 09:26:15 PM 33.9547 -118.3861 263° West 186 214 500 -585 Descending Los Angeles Center
Mon 09:27:17 PM 33.9500 -118.4297 263° West 172 198 200 -290 Descending Los Angeles Center

Login

Don't have an account? Register now (free) for customized features, flight alerts, and more!